Dart — OUOV2 — position and weather

sailwx.info

Track history (hours):
 
Tides and Currents Weather Stations Pressure Air Temp Water Temp Dewpoint Dewpoint Depression Visibility Wind Speed Wind Dir Waves Ship Positions

Dart

Last reported at 2016-Sep-29 00:19 UTC. Time now 2016-Sep-29 16:59 UTC.
Position N 59°25' E 005°15'.

Length 66 m; draft 4.5 m.

Type: Tanker. MMSI: 219416000.

Date/timePositionNaut miles runAvg speedWind from/ knotsBaromVisibWave heightAir tempDewpointWater temp
2016-Sep-29 00:19N 59°25' E 005°15'10 3.5
2016-Sep-28 21:32N 59°35' E 005°14'11 5.6
2016-Sep-28 19:33N 59°43' E 005°28'  
2016-Sep-26 15:33N 59°38' E 005°19'50 2.3
2016-Sep-25 17:33N 58°48' E 005°25'1111.5
2016-Sep-25 16:34N 58°37' E 005°32'1111.4
2016-Sep-25 15:34N 58°28' E 005°45'1211.5
2016-Sep-25 14:34N 58°20' E 006°01'2412.0
2016-Sep-25 12:33N 58°04' E 006°36'1010.5
2016-Sep-25 11:33N 57°60' E 006°53'1010.0
2016-Sep-25 10:33N 57°57' E 007°11'9 9.1
2016-Sep-25 09:33N 57°56' E 007°28'47 8.8
2016-Sep-25 04:15N 57°54' E 008°56'52 9.0
2016-Sep-24 22:29N 57°47' E 010°32'7 7.6
2016-Sep-24 21:33N 57°44' E 010°44'5 2.1
2016-Sep-24 19:21N 57°43' E 010°36'2 0.1
2016-Sep-23 16:27N 57°42' E 010°39'3 0.1
2016-Sep-22 03:17N 57°43' E 010°35'0 0.0
2016-Sep-22 00:29N 57°43' E 010°35'0 0.0
2016-Sep-20 17:32N 57°43' E 010°35'0 0.0
2016-Sep-20 13:29N 57°43' E 010°35'0 0.0
2016-Sep-20 10:26N 57°43' E 010°35'0 0.0
2016-Sep-20 08:29N 57°43' E 010°35'0 0.0
2016-Sep-20 07:32N 57°43' E 010°35'0 0.0
2016-Sep-19 14:32N 57°43' E 010°35'0 0.0
2016-Sep-19 13:26N 57°43' E 010°35'0 0.0
2016-Sep-19 03:17N 57°43' E 010°35'0 0.0
2016-Sep-19 02:26N 57°43' E 010°35'0 0.0
2016-Sep-19 00:26N 57°43' E 010°35'  
Track history (hours):
 
Tides and Currents Weather Stations Pressure Air Temp Water Temp Dewpoint Dewpoint Depression Visibility Wind Speed Wind Dir Waves Ship Positions

Dart

Last reported at 2016-Sep-29 00:19 UTC. Time now 2016-Sep-29 16:59 UTC.
Position N 59°25' E 005°15'.

Length 66 m; draft 4.5 m.

Type: Tanker. MMSI: 219416000.

Date/timePositionNaut miles runAvg speedWind from/ knotsBaromVisibWave heightAir tempDewpointWater temp
2016-Sep-29 00:19N 59°25' E 005°15'10 3.5
2016-Sep-28 21:32N 59°35' E 005°14'11 5.6
2016-Sep-28 19:33N 59°43' E 005°28'  
2016-Sep-26 15:33N 59°38' E 005°19'50 2.3
2016-Sep-25 17:33N 58°48' E 005°25'1111.5
2016-Sep-25 16:34N 58°37' E 005°32'1111.4
2016-Sep-25 15:34N 58°28' E 005°45'1211.5
2016-Sep-25 14:34N 58°20' E 006°01'2412.0
2016-Sep-25 12:33N 58°04' E 006°36'1010.5
2016-Sep-25 11:33N 57°60' E 006°53'1010.0
2016-Sep-25 10:33N 57°57' E 007°11'9 9.1
2016-Sep-25 09:33N 57°56' E 007°28'47 8.8
2016-Sep-25 04:15N 57°54' E 008°56'52 9.0
2016-Sep-24 22:29N 57°47' E 010°32'7 7.6
2016-Sep-24 21:33N 57°44' E 010°44'5 2.1
2016-Sep-24 19:21N 57°43' E 010°36'2 0.1
2016-Sep-23 16:27N 57°42' E 010°39'3 0.1
2016-Sep-22 03:17N 57°43' E 010°35'0 0.0
2016-Sep-22 00:29N 57°43' E 010°35'0 0.0
2016-Sep-20 17:32N 57°43' E 010°35'0 0.0
2016-Sep-20 13:29N 57°43' E 010°35'0 0.0
2016-Sep-20 10:26N 57°43' E 010°35'0 0.0
2016-Sep-20 08:29N 57°43' E 010°35'0 0.0
2016-Sep-20 07:32N 57°43' E 010°35'0 0.0
2016-Sep-19 14:32N 57°43' E 010°35'0 0.0
2016-Sep-19 13:26N 57°43' E 010°35'0 0.0
2016-Sep-19 03:17N 57°43' E 010°35'0 0.0
2016-Sep-19 02:26N 57°43' E 010°35'0 0.0
2016-Sep-19 00:26N 57°43' E 010°35'  

Dump ship's entire track history